Terminal Aerodrome Forecast
Issued by NWS Houston/Galveston, TX

Home | Current Version | Previous Version | Text Only | Print | Product List | Glossary On
Versions: 1 2 3 4 5 6 7 8 9 10 11 12 13 14 15 16 17 18 19 20 21 22 23 24 25 26 27 28 29 30 31 32
000
FTUS44 KHGX 221522 AAA
TAFGLS
TAF AMD
KGLS 221522Z 2215/2312 26020G30KT P6SM FEW035
     FM222000 31027G39KT P6SM FEW040
     FM230100 33021KT P6SM SKC
     FM230900 31011KT P6SM SKC=

USA.gov is the U.S. government's official web portal to all federal, state and local government web resources and services.